Time;durP1;ratioP1;P1;durP2;ratioP2;P2;SDS_P1;SDS_P2;PMS_P1;PMS_P2;Temp;Humidity;BMP_temperature;BMP_pressure;BME280_temperature;BME280_humidity;BME280_pressure;Samples;Min_cycle;Max_cycle;Signal;HPM_P1;HPM_P2
2022/04/10 00:01:22;;;;;;;;;;;22.90;34.90;;;;;;4946184;29;20398;-62
2022/04/10 00:03:49;;;;;;;;;;;22.90;34.80;;;;;;4941488;29;19992;-64
2022/04/10 00:06:16;;;;;;;;;;;22.90;34.80;;;;;;4946049;29;19927;-63
2022/04/10 00:08:43;;;;;;;;;;;22.90;34.80;;;;;;4946688;29;20534;-64
2022/04/10 00:11:10;;;;;;;;;;;23.00;35.30;;;;;;4946019;29;20040;-63
2022/04/10 00:13:38;;;;;;;;;;;22.90;34.70;;;;;;4946866;29;20375;-63
2022/04/10 00:16:05;;;;;;;;;;;22.90;34.70;;;;;;4945452;29;19926;-63
2022/04/10 00:18:34;;;;;;;;;;;22.90;34.70;;;;;;4946048;29;19978;-63
2022/04/10 00:21:02;;;;;;;;;;;22.90;34.70;;;;;;4945920;29;19926;-63
2022/04/10 00:23:29;;;;;;;;;;;22.90;34.70;;;;;;4945999;29;20383;-63
2022/04/10 00:25:56;;;;;;;;;;;22.90;34.80;;;;;;4946001;29;19926;-64
2022/04/10 00:28:23;;;;;;;;;;;22.90;34.80;;;;;;4945744;29;20028;-63
2022/04/10 00:30:51;;;;;;;;;;;22.90;34.80;;;;;;4945714;29;19931;-63
2022/04/10 00:33:18;;;;;;;;;;;22.90;34.80;;;;;;4944578;29;20184;-63
2022/04/10 00:35:45;;;;;;;;;;;22.90;34.80;;;;;;4941271;29;19926;-63
2022/04/10 00:38:12;;;;;;;;;;;22.90;34.80;;;;;;4945541;29;20465;-63
2022/04/10 00:40:39;;;;;;;;;;;22.90;34.80;;;;;;4945367;29;19992;-63
2022/04/10 00:43:06;;;;;;;;;;;22.90;34.80;;;;;;4945597;29;19984;-63
2022/04/10 00:45:33;;;;;;;;;;;22.90;34.80;;;;;;4945771;29;20449;-63
2022/04/10 00:48:00;;;;;;;;;;;22.90;34.80;;;;;;4945468;29;19957;-63
2022/04/10 00:50:27;;;;;;;;;;;22.90;34.90;;;;;;4946169;29;20456;-63
2022/04/10 00:52:57;;;;;;;;;;;22.90;34.90;;;;;;4945266;29;19977;-63
2022/04/10 00:55:24;;;;;;;;;;;22.90;34.90;;;;;;4945828;28;19930;-63
2022/04/10 00:57:52;;;;;;;;;;;22.90;34.90;;;;;;4945045;29;20520;-64
2022/04/10 01:00:19;;;;;;;;;;;22.90;34.90;;;;;;4945669;29;20211;-63
2022/04/10 01:02:46;;;;;;;;;;;22.90;34.90;;;;;;4928101;29;19984;-63
2022/04/10 01:05:13;;;;;;;;;;;22.90;34.90;;;;;;4945041;29;19937;-63
2022/04/10 01:07:40;;;;;;;;;;;22.90;35.00;;;;;;4941065;29;20282;-63
2022/04/10 01:10:08;;;;;;;;;;;22.90;34.90;;;;;;4945207;28;19937;-63
2022/04/10 01:12:35;;;;;;;;;;;22.90;34.90;;;;;;4945181;29;19926;-63
2022/04/10 01:15:04;;;;;;;;;;;22.90;34.90;;;;;;4945455;28;19957;-63
2022/04/10 01:17:31;;;;;;;;;;;22.90;34.90;;;;;;4944605;28;19935;-63
2022/04/10 01:19:59;;;;;;;;;;;22.80;34.90;;;;;;4944754;28;19980;-63
2022/04/10 01:22:29;;;;;;;;;;;22.80;35.00;;;;;;4944035;28;20026;-63
2022/04/10 01:24:56;;;;;;;;;;;22.80;35.00;;;;;;4935983;28;19941;-64
2022/04/10 01:27:23;;;;;;;;;;;22.80;35.00;;;;;;4956440;28;19927;-63
2022/04/10 01:29:50;;;;;;;;;;;22.80;35.10;;;;;;4943578;28;19927;-63
2022/04/10 01:32:17;;;;;;;;;;;22.80;35.10;;;;;;4943181;28;19926;-63
2022/04/10 01:34:44;;;;;;;;;;;22.80;35.10;;;;;;4944507;28;20309;-63
2022/04/10 01:37:12;;;;;;;;;;;22.80;35.10;;;;;;4943237;29;19926;-63
2022/04/10 01:39:39;;;;;;;;;;;22.70;35.10;;;;;;4942226;28;19937;-63
2022/04/10 01:42:06;;;;;;;;;;;22.80;35.10;;;;;;4943821;28;19930;-63
2022/04/10 01:44:40;;;;;;;;;;;22.80;35.10;;;;;;4944423;28;20004;-63
2022/04/10 01:47:07;;;;;;;;;;;22.80;35.10;;;;;;4944597;28;19966;-63
2022/04/10 01:49:34;;;;;;;;;;;22.80;35.10;;;;;;4943960;28;19926;-63
2022/04/10 01:52:01;;;;;;;;;;;22.80;35.00;;;;;;4943482;28;20263;-63
2022/04/10 01:54:28;;;;;;;;;;;22.80;35.00;;;;;;4944150;28;19930;-63
2022/04/10 01:56:55;;;;;;;;;;;22.80;35.00;;;;;;4944307;28;20371;-63
2022/04/10 01:59:22;;;;;;;;;;;22.80;35.00;;;;;;4943823;28;20025;-64
2022/04/10 02:01:49;;;;;;;;;;;22.80;35.00;;;;;;4944155;28;19926;-63
2022/04/10 02:04:17;;;;;;;;;;;22.80;35.00;;;;;;4943086;28;20026;-63
2022/04/10 02:06:44;;;;;;;;;;;22.80;35.00;;;;;;4942836;28;19927;-63
2022/04/10 02:09:11;;;;;;;;;;;22.80;35.00;;;;;;4942533;28;19931;-63
2022/04/10 02:11:38;;;;;;;;;;;22.80;35.00;;;;;;4945507;29;20333;-63
2022/04/10 02:14:05;;;;;;;;;;;22.80;35.00;;;;;;4946868;28;20112;-64
2022/04/10 02:16:32;;;;;;;;;;;22.80;35.00;;;;;;4947228;28;19976;-63
2022/04/10 02:18:59;;;;;;;;;;;22.80;35.00;;;;;;4946465;28;19930;-63
2022/04/10 02:21:26;;;;;;;;;;;22.80;35.00;;;;;;4947815;28;20361;-63
2022/04/10 02:23:53;;;;;;;;;;;22.80;35.00;;;;;;4946570;28;19992;-63
2022/04/10 02:26:20;;;;;;;;;;;22.80;35.00;;;;;;4945573;28;19930;-63
2022/04/10 02:28:47;;;;;;;;;;;22.80;35.00;;;;;;4945092;28;19972;-63
2022/04/10 02:31:14;;;;;;;;;;;22.80;35.00;;;;;;4947278;28;20050;-63
2022/04/10 02:33:41;;;;;;;;;;;22.80;35.00;;;;;;4947442;28;19935;-63
2022/04/10 02:36:08;;;;;;;;;;;22.80;35.00;;;;;;4946437;28;19926;-63
2022/04/10 02:38:34;;;;;;;;;;;22.80;35.00;;;;;;4945954;28;19939;-63
2022/04/10 02:41:01;;;;;;;;;;;22.80;35.00;;;;;;4942784;28;19973;-63
2022/04/10 02:43:29;;;;;;;;;;;22.80;35.00;;;;;;4947081;29;20382;-63
2022/04/10 02:45:56;;;;;;;;;;;22.80;35.00;;;;;;4946764;28;19988;-63
2022/04/10 02:48:23;;;;;;;;;;;22.80;35.00;;;;;;4945627;28;20028;-63
2022/04/10 02:50:50;;;;;;;;;;;22.80;35.00;;;;;;4947025;28;20195;-63
2022/04/10 02:53:17;;;;;;;;;;;22.70;35.00;;;;;;4945437;28;20444;-63
2022/04/10 02:55:44;;;;;;;;;;;22.70;35.00;;;;;;4946945;28;19962;-63
2022/04/10 02:58:12;;;;;;;;;;;22.70;35.00;;;;;;4945708;28;19981;-64
2022/04/10 03:00:39;;;;;;;;;;;22.70;35.00;;;;;;4946640;28;19927;-64
2022/04/10 03:03:06;;;;;;;;;;;22.70;35.00;;;;;;4945641;28;19963;-63
2022/04/10 03:05:33;;;;;;;;;;;22.70;35.00;;;;;;4945210;28;19930;-64
2022/04/10 03:08:00;;;;;;;;;;;22.70;35.00;;;;;;4945351;28;20000;-63
2022/04/10 03:10:27;;;;;;;;;;;22.70;35.00;;;;;;4946551;28;19953;-64
2022/04/10 03:12:54;;;;;;;;;;;22.70;35.10;;;;;;4942003;28;19931;-63
2022/04/10 03:15:21;;;;;;;;;;;22.70;35.10;;;;;;4946191;28;19933;-64
2022/04/10 03:17:48;;;;;;;;;;;22.70;35.10;;;;;;4945229;28;20389;-63
2022/04/10 03:20:15;;;;;;;;;;;22.60;35.10;;;;;;4945507;28;20155;-64
2022/04/10 03:22:42;;;;;;;;;;;22.60;35.10;;;;;;4944900;28;19930;-63
2022/04/10 03:25:10;;;;;;;;;;;22.70;35.20;;;;;;4946588;28;19927;-64
2022/04/10 03:27:38;;;;;;;;;;;22.60;35.10;;;;;;4946391;28;19930;-62
2022/04/10 03:30:05;;;;;;;;;;;22.60;35.10;;;;;;4945153;28;20455;-63
2022/04/10 03:32:32;;;;;;;;;;;22.70;35.10;;;;;;4946491;28;19930;-63
2022/04/10 03:34:59;;;;;;;;;;;22.70;35.00;;;;;;4945046;28;19930;-63
2022/04/10 03:37:26;;;;;;;;;;;22.70;35.00;;;;;;4946269;28;20477;-63
2022/04/10 03:39:53;;;;;;;;;;;22.70;35.00;;;;;;4945692;28;19964;-63
2022/04/10 03:42:20;;;;;;;;;;;22.70;35.00;;;;;;4946550;29;19926;-64
2022/04/10 03:44:47;;;;;;;;;;;22.70;34.90;;;;;;4942254;28;19966;-63
2022/04/10 03:47:14;;;;;;;;;;;22.70;34.90;;;;;;4946163;29;19976;-63
2022/04/10 03:49:41;;;;;;;;;;;22.70;34.90;;;;;;4946302;29;20370;-64
2022/04/10 03:52:08;;;;;;;;;;;22.70;34.90;;;;;;4947108;29;19958;-63
2022/04/10 03:54:35;;;;;;;;;;;22.70;34.80;;;;;;4944858;28;20345;-64
2022/04/10 03:57:03;;;;;;;;;;;22.70;34.80;;;;;;4946021;28;19970;-64
2022/04/10 03:59:31;;;;;;;;;;;22.70;34.80;;;;;;4945359;28;19976;-64
2022/04/10 04:01:58;;;;;;;;;;;22.70;34.80;;;;;;4944465;28;19966;-63
2022/04/10 04:04:25;;;;;;;;;;;22.70;34.80;;;;;;4944583;28;19973;-64
2022/04/10 04:06:52;;;;;;;;;;;22.70;34.80;;;;;;4945268;28;20391;-63
2022/04/10 04:09:19;;;;;;;;;;;22.70;34.80;;;;;;4944982;28;20348;-63
2022/04/10 04:11:46;;;;;;;;;;;22.70;34.80;;;;;;4944870;28;20437;-64
2022/04/10 04:14:13;;;;;;;;;;;22.70;34.80;;;;;;4945452;28;19996;-63
2022/04/10 04:16:40;;;;;;;;;;;22.60;35.30;;;;;;4940517;28;20413;-64
2022/04/10 04:19:08;;;;;;;;;;;22.70;34.80;;;;;;4945364;28;19985;-63
2022/04/10 04:21:35;;;;;;;;;;;22.70;34.80;;;;;;4938733;28;19996;-64
2022/04/10 04:24:02;;;;;;;;;;;22.70;34.80;;;;;;4944989;28;20417;-63
2022/04/10 04:26:28;;;;;;;;;;;22.70;34.80;;;;;;4945950;28;19934;-64
2022/04/10 04:28:59;;;;;;;;;;;22.70;34.80;;;;;;4943785;28;19953;-64
2022/04/10 04:31:26;;;;;;;;;;;22.70;34.80;;;;;;4938069;28;19927;-64
2022/04/10 04:33:53;;;;;;;;;;;22.70;34.70;;;;;;4945012;28;19937;-64
2022/04/10 04:36:20;;;;;;;;;;;22.70;34.70;;;;;;4943733;28;19965;-64
2022/04/10 04:38:47;;;;;;;;;;;22.70;34.70;;;;;;4945067;28;19980;-63
2022/04/10 04:41:14;;;;;;;;;;;22.70;34.70;;;;;;4944068;28;19927;-63
2022/04/10 04:43:41;;;;;;;;;;;22.70;34.70;;;;;;4943648;28;19930;-63
2022/04/10 04:46:08;;;;;;;;;;;22.70;34.70;;;;;;4945979;28;19984;-64
2022/04/10 04:48:35;;;;;;;;;;;22.70;34.70;;;;;;4940192;28;19972;-64
2022/04/10 04:51:02;;;;;;;;;;;22.70;34.60;;;;;;4945503;28;19965;-64
2022/04/10 04:53:29;;;;;;;;;;;22.70;34.60;;;;;;4944048;28;19969;-64
2022/04/10 04:55:56;;;;;;;;;;;22.70;34.60;;;;;;4943890;28;19926;-64
2022/04/10 04:58:23;;;;;;;;;;;22.70;34.50;;;;;;4944908;28;20327;-64
2022/04/10 05:00:50;;;;;;;;;;;22.70;34.50;;;;;;4943268;28;20743;-64
2022/04/10 05:03:17;;;;;;;;;;;22.70;34.40;;;;;;4945315;28;20365;-64
2022/04/10 05:05:44;;;;;;;;;;;22.80;34.40;;;;;;4943517;28;19974;-64
2022/04/10 05:08:12;;;;;;;;;;;22.80;34.10;;;;;;4946118;28;19927;-64
2022/04/10 05:10:39;;;;;;;;;;;22.80;33.80;;;;;;4944424;28;19926;-63
2022/04/10 05:13:07;;;;;;;;;;;22.90;33.60;;;;;;4943031;28;19980;-63
2022/04/10 05:15:34;;;;;;;;;;;22.90;34.00;;;;;;4943931;28;20378;-63
2022/04/10 05:18:01;;;;;;;;;;;22.90;33.20;;;;;;4936710;28;19926;-63
2022/04/10 05:20:28;;;;;;;;;;;22.90;33.00;;;;;;4939355;28;19949;-63
2022/04/10 05:22:56;;;;;;;;;;;22.90;32.90;;;;;;4944579;28;19926;-64
2022/04/10 05:25:23;;;;;;;;;;;23.00;32.80;;;;;;4944526;28;19988;-64
2022/04/10 05:27:50;;;;;;;;;;;23.00;32.90;;;;;;4944384;28;19980;-63
2022/04/10 05:30:17;;;;;;;;;;;23.00;32.90;;;;;;4942345;28;19927;-63
2022/04/10 05:32:44;;;;;;;;;;;23.00;32.80;;;;;;4944369;28;19934;-64
2022/04/10 05:35:12;;;;;;;;;;;23.00;32.80;;;;;;4944303;28;19926;-63
2022/04/10 05:37:38;;;;;;;;;;;23.00;32.60;;;;;;4943711;28;20410;-64
2022/04/10 05:40:06;;;;;;;;;;;23.00;32.50;;;;;;4944657;28;20360;-63
2022/04/10 05:42:37;;;;;;;;;;;23.00;32.40;;;;;;4943697;28;19992;-63
2022/04/10 05:45:04;;;;;;;;;;;23.00;32.30;;;;;;4942769;28;19930;-64
2022/04/10 05:47:31;;;;;;;;;;;23.10;32.30;;;;;;4944782;29;19927;-64
2022/04/10 05:49:58;;;;;;;;;;;23.10;32.20;;;;;;4944373;28;20385;-64
2022/04/10 05:52:25;;;;;;;;;;;23.10;32.10;;;;;;4940552;29;19927;-64
2022/04/10 05:54:52;;;;;;;;;;;23.10;32.10;;;;;;4944429;28;19927;-63
2022/04/10 05:57:19;;;;;;;;;;;23.10;32.00;;;;;;4945341;28;19927;-63
2022/04/10 05:59:46;;;;;;;;;;;23.20;32.00;;;;;;4944606;28;20398;-64
2022/04/10 06:02:13;;;;;;;;;;;23.20;31.90;;;;;;4943902;28;20123;-63
2022/04/10 06:04:40;;;;;;;;;;;23.20;31.90;;;;;;4944025;28;19926;-64
2022/04/10 06:07:07;;;;;;;;;;;23.20;31.80;;;;;;4944454;29;20294;-64
2022/04/10 06:09:34;;;;;;;;;;;23.20;31.70;;;;;;4944567;28;19976;-64
2022/04/10 06:12:01;;;;;;;;;;;23.20;31.60;;;;;;4944035;28;19958;-63
2022/04/10 06:14:28;;;;;;;;;;;23.30;31.60;;;;;;4945210;29;20149;-63
2022/04/10 06:16:55;;;;;;;;;;;23.30;31.60;;;;;;4944330;29;19926;-64
2022/04/10 06:19:23;;;;;;;;;;;23.30;31.40;;;;;;4944099;29;19926;-63
2022/04/10 06:21:49;;;;;;;;;;;23.30;31.40;;;;;;4943516;29;20372;-64
2022/04/10 06:24:16;;;;;;;;;;;23.30;31.30;;;;;;4942111;28;19927;-64
2022/04/10 06:26:44;;;;;;;;;;;23.40;31.20;;;;;;4944889;29;20018;-64
2022/04/10 06:29:11;;;;;;;;;;;23.40;31.20;;;;;;4944184;28;19980;-63
2022/04/10 06:31:38;;;;;;;;;;;23.40;31.20;;;;;;4944085;29;19930;-62
2022/04/10 06:34:06;;;;;;;;;;;23.40;31.00;;;;;;4944606;29;19978;-64
2022/04/10 06:36:33;;;;;;;;;;;23.40;30.90;;;;;;4943881;29;19978;-64
2022/04/10 06:39:00;;;;;;;;;;;23.50;30.90;;;;;;4944424;29;20007;-64
2022/04/10 06:41:27;;;;;;;;;;;23.50;30.80;;;;;;4944163;29;19984;-63
2022/04/10 06:43:54;;;;;;;;;;;23.50;30.70;;;;;;4944035;29;19931;-64
2022/04/10 06:46:21;;;;;;;;;;;23.60;30.70;;;;;;4944723;28;20004;-63
2022/04/10 06:48:48;;;;;;;;;;;23.60;30.60;;;;;;4943957;29;19933;-64
2022/04/10 06:51:16;;;;;;;;;;;23.60;30.40;;;;;;4944817;29;19926;-63
2022/04/10 06:53:43;;;;;;;;;;;23.60;30.30;;;;;;4940378;29;20378;-63
2022/04/10 06:56:11;;;;;;;;;;;23.70;30.30;;;;;;4945843;28;19926;-64
2022/04/10 06:58:37;;;;;;;;;;;23.80;30.20;;;;;;4947109;29;19984;-64
2022/04/10 07:01:04;;;;;;;;;;;23.80;30.10;;;;;;4945637;28;20606;-64
2022/04/10 07:03:32;;;;;;;;;;;23.80;30.00;;;;;;4946172;28;19938;-64
2022/04/10 07:05:59;;;;;;;;;;;23.80;30.40;;;;;;4945282;28;20370;-64
2022/04/10 07:08:26;;;;;;;;;;;23.90;30.00;;;;;;4946411;28;20021;-64
2022/04/10 07:10:53;;;;;;;;;;;23.90;29.90;;;;;;4945713;28;20038;-64
2022/04/10 07:13:21;;;;;;;;;;;23.90;29.80;;;;;;4945414;28;20142;-64
2022/04/10 07:15:52;;;;;;;;;;;23.90;29.80;;;;;;4946892;28;20605;-63
2022/04/10 07:18:19;;;;;;;;;;;23.90;29.70;;;;;;4945519;28;19977;-64
2022/04/10 07:20:46;;;;;;;;;;;23.90;29.70;;;;;;4946692;28;20125;-63
2022/04/10 07:26:00;;;;;;;;;;;24.00;29.60;;;;;;4941374;28;20021;-64
2022/04/10 07:28:27;;;;;;;;;;;24.00;29.60;;;;;;4945796;28;20163;-64
2022/04/10 07:30:54;;;;;;;;;;;24.00;29.50;;;;;;4945567;28;20263;-62
2022/04/10 07:33:21;;;;;;;;;;;24.00;29.50;;;;;;4945425;28;20140;-64
2022/04/10 07:35:48;;;;;;;;;;;24.00;29.40;;;;;;4945059;28;20053;-64
2022/04/10 07:38:17;;;;;;;;;;;24.00;29.30;;;;;;4945990;28;20252;-64
2022/04/10 07:40:44;;;;;;;;;;;24.10;29.40;;;;;;4945998;28;19996;-64
2022/04/10 07:43:11;;;;;;;;;;;24.00;29.30;;;;;;4946945;28;20013;-64
2022/04/10 07:48:25;;;;;;;;;;;24.10;29.30;;;;;;4944354;28;19927;-64
2022/04/10 07:50:52;;;;;;;;;;;24.10;29.30;;;;;;4945162;28;20089;-64
2022/04/10 07:53:19;;;;;;;;;;;24.10;29.20;;;;;;4944795;28;20147;-64
2022/04/10 07:55:46;;;;;;;;;;;24.10;29.20;;;;;;4945435;28;20373;-64
2022/04/10 07:58:13;;;;;;;;;;;24.10;29.20;;;;;;4941288;28;20334;-64
2022/04/10 08:00:40;;;;;;;;;;;24.10;29.10;;;;;;4945965;28;19980;-64
2022/04/10 08:03:07;;;;;;;;;;;24.10;29.10;;;;;;4945366;28;20044;-64
2022/04/10 08:05:35;;;;;;;;;;;24.10;29.10;;;;;;4944646;28;20185;-64
2022/04/10 08:08:02;;;;;;;;;;;24.10;29.00;;;;;;4943903;28;19984;-64
2022/04/10 08:10:29;;;;;;;;;;;24.10;29.00;;;;;;4945061;28;20480;-64
2022/04/10 08:12:58;;;;;;;;;;;24.10;28.90;;;;;;4944337;28;20605;-64
2022/04/10 08:15:26;;;;;;;;;;;24.20;29.00;;;;;;4944956;28;19972;-64
2022/04/10 08:17:53;;;;;;;;;;;24.20;28.90;;;;;;4945207;28;19930;-64
2022/04/10 08:20:20;;;;;;;;;;;24.20;28.90;;;;;;4944916;28;19962;-64
2022/04/10 08:22:48;;;;;;;;;;;24.20;28.90;;;;;;4944893;28;19926;-64
2022/04/10 08:25:17;;;;;;;;;;;24.20;28.80;;;;;;4943381;28;20132;-64
2022/04/10 08:27:44;;;;;;;;;;;24.20;28.70;;;;;;4944310;28;19934;-64
2022/04/10 08:30:12;;;;;;;;;;;24.20;28.80;;;;;;4940656;28;19973;-64
2022/04/10 08:32:40;;;;;;;;;;;24.20;28.80;;;;;;4945766;28;20022;-64
2022/04/10 08:35:08;;;;;;;;;;;24.20;28.70;;;;;;4943929;28;19926;-64
2022/04/10 08:37:35;;;;;;;;;;;24.20;28.70;;;;;;4943892;28;19976;-64
2022/04/10 08:40:03;;;;;;;;;;;24.30;28.70;;;;;;4944348;28;20379;-64
2022/04/10 08:42:30;;;;;;;;;;;24.30;28.70;;;;;;4945300;29;20417;-64
2022/04/10 08:44:57;;;;;;;;;;;24.30;28.70;;;;;;4945221;29;19989;-64
2022/04/10 08:47:25;;;;;;;;;;;24.30;28.60;;;;;;4945845;28;20654;-64
2022/04/10 08:49:53;;;;;;;;;;;24.30;28.50;;;;;;4944502;28;19958;-64
2022/04/10 08:52:21;;;;;;;;;;;24.40;28.50;;;;;;4944519;28;19980;-64
2022/04/10 08:54:48;;;;;;;;;;;24.40;28.50;;;;;;4943624;28;20371;-64
2022/04/10 08:57:15;;;;;;;;;;;24.40;28.40;;;;;;4944910;28;19962;-64
2022/04/10 08:59:42;;;;;;;;;;;24.50;28.50;;;;;;4942491;28;19961;-64
2022/04/10 09:02:10;;;;;;;;;;;24.50;28.40;;;;;;4940866;28;20037;-63
2022/04/10 09:04:38;;;;;;;;;;;24.50;28.30;;;;;;4944225;28;19945;-64
2022/04/10 09:07:07;;;;;;;;;;;24.50;28.30;;;;;;4944237;28;19938;-64
2022/04/10 09:09:35;;;;;;;;;;;24.50;28.20;;;;;;4944272;28;19985;-64
2022/04/10 09:12:02;;;;;;;;;;;24.50;28.20;;;;;;4937168;28;20027;-64
2022/04/10 09:14:40;;;;;;;;;;;24.50;28.10;;;;;;4944012;28;19972;-64
2022/04/10 09:17:17;;;;;;;;;;;24.50;28.10;;;;;;4944986;28;20029;-64
2022/04/10 09:19:49;;;;;;;;;;;24.50;28.10;;;;;;4942798;28;20203;-64
2022/04/10 09:22:21;;;;;;;;;;;24.50;28.60;;;;;;4944907;28;19927;-64
2022/04/10 09:25:07;;;;;;;;;;;24.50;28.00;;;;;;4943656;28;19926;-64
2022/04/10 09:27:36;;;;;;;;;;;24.50;28.00;;;;;;4938178;28;19983;-64
2022/04/10 09:30:04;;;;;;;;;;;24.50;28.00;;;;;;4943456;28;19934;-64
2022/04/10 09:32:42;;;;;;;;;;;24.50;27.90;;;;;;4939683;28;20005;-64
2022/04/10 09:35:10;;;;;;;;;;;24.50;27.90;;;;;;4943527;28;19980;-64
2022/04/10 09:37:49;;;;;;;;;;;24.50;27.80;;;;;;4942876;28;20379;-64
2022/04/10 09:40:23;;;;;;;;;;;24.50;27.80;;;;;;4943866;28;20190;-64
2022/04/10 09:42:55;;;;;;;;;;;24.50;27.70;;;;;;4943599;28;19981;-64
2022/04/10 09:45:36;;;;;;;;;;;24.50;27.70;;;;;;4943661;28;19934;-64
2022/04/10 09:48:16;;;;;;;;;;;24.50;27.80;;;;;;4943668;28;20367;-64
2022/04/10 09:50:43;;;;;;;;;;;24.50;27.80;;;;;;4943277;28;19927;-64
2022/04/10 09:53:11;;;;;;;;;;;24.50;27.70;;;;;;4944561;28;19957;-64
2022/04/10 09:55:39;;;;;;;;;;;24.50;27.80;;;;;;4943127;28;20433;-64
2022/04/10 09:58:07;;;;;;;;;;;24.50;27.70;;;;;;4944378;28;19949;-64
2022/04/10 10:00:39;;;;;;;;;;;24.50;27.70;;;;;;4944813;29;20282;-64
2022/04/10 10:03:07;;;;;;;;;;;24.50;27.70;;;;;;4944216;28;19926;-64
2022/04/10 10:05:35;;;;;;;;;;;24.50;27.70;;;;;;4938928;28;19931;-64
2022/04/10 10:08:02;;;;;;;;;;;24.50;27.60;;;;;;4943096;28;19927;-64
2022/04/10 10:10:31;;;;;;;;;;;24.50;27.60;;;;;;4943467;28;20048;-64
2022/04/10 10:12:58;;;;;;;;;;;24.50;27.50;;;;;;4942989;28;19977;-64
2022/04/10 10:15:32;;;;;;;;;;;24.50;27.40;;;;;;4943859;28;19934;-64
2022/04/10 10:18:01;;;;;;;;;;;24.50;27.50;;;;;;4942841;28;19977;-63
2022/04/10 10:20:28;;;;;;;;;;;24.50;27.50;;;;;;4942573;28;20325;-64
2022/04/10 10:22:56;;;;;;;;;;;24.50;27.40;;;;;;4944013;28;19931;-64
2022/04/10 10:25:27;;;;;;;;;;;24.50;27.40;;;;;;4942426;28;20271;-65
2022/04/10 10:28:08;;;;;;;;;;;24.60;27.40;;;;;;4943237;28;19930;-64
2022/04/10 10:30:45;;;;;;;;;;;24.60;27.40;;;;;;4944621;28;20270;-64
2022/04/10 10:33:19;;;;;;;;;;;24.60;27.40;;;;;;4945532;28;19965;-64
2022/04/10 10:35:55;;;;;;;;;;;24.60;27.40;;;;;;4947965;29;19927;-64
2022/04/10 10:38:23;;;;;;;;;;;24.70;27.40;;;;;;4945925;28;20537;-64
2022/04/10 10:40:51;;;;;;;;;;;24.70;27.20;;;;;;4944629;28;19996;-64
2022/04/10 10:43:25;;;;;;;;;;;24.70;27.70;;;;;;4945038;28;20481;-64
2022/04/10 10:45:52;;;;;;;;;;;24.80;27.20;;;;;;4946518;28;19965;-63
2022/04/10 10:48:41;;;;;;;;;;;24.70;27.10;;;;;;4946659;28;19970;-64
2022/04/10 10:51:28;;;;;;;;;;;24.80;27.00;;;;;;4946497;28;19992;-64
2022/04/10 10:53:57;;;;;;;;;;;24.80;27.00;;;;;;4932518;29;19973;-64
2022/04/10 10:56:29;;;;;;;;;;;24.80;26.90;;;;;;4965698;28;20390;-64
2022/04/10 10:59:31;;;;;;;;;;;24.80;26.90;;;;;;4967309;28;20149;-64
2022/04/10 11:02:17;;;;;;;;;;;24.90;26.80;;;;;;4965270;28;20234;-64
2022/04/10 11:05:07;;;;;;;;;;;24.90;26.70;;;;;;4966685;28;19958;-64
2022/04/10 11:07:39;;;;;;;;;;;24.90;26.70;;;;;;4965668;28;19926;-64
2022/04/10 11:10:10;;;;;;;;;;;24.90;26.60;;;;;;4965387;28;20488;-64
2022/04/10 11:12:49;;;;;;;;;;;24.90;26.60;;;;;;4964220;28;20318;-64
2022/04/10 11:15:18;;;;;;;;;;;24.90;26.50;;;;;;4965526;28;19930;-64
2022/04/10 11:17:46;;;;;;;;;;;24.90;26.40;;;;;;4966530;28;20011;-64
2022/04/10 11:20:14;;;;;;;;;;;24.90;26.40;;;;;;4965947;28;19980;-64
2022/04/10 11:22:55;;;;;;;;;;;24.90;26.40;;;;;;4965658;28;20598;-64
2022/04/10 11:25:30;;;;;;;;;;;24.90;26.30;;;;;;4965068;28;19957;-64
2022/04/10 11:28:04;;;;;;;;;;;24.90;26.30;;;;;;4966092;28;19930;-64
2022/04/10 11:30:32;;;;;;;;;;;24.90;26.30;;;;;;4966114;28;19991;-64
2022/04/10 11:33:02;;;;;;;;;;;24.90;26.30;;;;;;4965010;28;19934;-64
2022/04/10 11:35:34;;;;;;;;;;;24.90;26.20;;;;;;4966088;28;19926;-64
2022/04/10 11:38:03;;;;;;;;;;;24.90;26.10;;;;;;4965319;28;19977;-64
2022/04/10 11:40:31;;;;;;;;;;;24.90;26.00;;;;;;4966282;28;19926;-64
2022/04/10 11:43:00;;;;;;;;;;;24.90;26.00;;;;;;4964894;28;19969;-64
2022/04/10 11:45:28;;;;;;;;;;;24.90;26.00;;;;;;4961288;28;19934;-64
2022/04/10 11:48:05;;;;;;;;;;;24.90;25.90;;;;;;4965883;28;20406;-63
2022/04/10 11:50:32;;;;;;;;;;;24.90;25.90;;;;;;4965561;28;20543;-64
2022/04/10 11:53:01;;;;;;;;;;;24.90;25.80;;;;;;4965928;28;19988;-64
2022/04/10 11:55:42;;;;;;;;;;;24.90;25.70;;;;;;4965302;28;20374;-64
2022/04/10 11:58:17;;;;;;;;;;;25.00;25.80;;;;;;4963573;28;19926;-64
2022/04/10 12:00:56;;;;;;;;;;;24.90;25.70;;;;;;4964829;28;19977;-64
2022/04/10 12:03:29;;;;;;;;;;;25.00;25.80;;;;;;4964665;28;19933;-64
2022/04/10 12:05:56;;;;;;;;;;;25.00;25.80;;;;;;4965436;28;20458;-64
2022/04/10 12:08:24;;;;;;;;;;;25.00;25.80;;;;;;4964913;28;20349;-64
2022/04/10 12:10:51;;;;;;;;;;;25.10;25.90;;;;;;4951248;28;19973;-64
2022/04/10 12:13:19;;;;;;;;;;;25.10;25.90;;;;;;4943542;28;19992;-64
2022/04/10 12:15:46;;;;;;;;;;;25.10;25.80;;;;;;4942340;28;20021;-64
2022/04/10 12:18:13;;;;;;;;;;;25.10;25.80;;;;;;4943300;28;19982;-64
2022/04/10 12:20:41;;;;;;;;;;;25.10;25.80;;;;;;4944944;28;20005;-64
2022/04/10 12:23:16;;;;;;;;;;;25.10;25.70;;;;;;4945405;28;19985;-64
2022/04/10 12:25:43;;;;;;;;;;;25.10;25.90;;;;;;4945426;29;20150;-64
2022/04/10 12:28:10;;;;;;;;;;;25.10;25.80;;;;;;4944594;28;19980;-64
2022/04/10 12:30:38;;;;;;;;;;;25.10;25.70;;;;;;4945236;28;19927;-64
2022/04/10 12:33:05;;;;;;;;;;;25.10;25.60;;;;;;4945428;28;19927;-64
2022/04/10 12:35:37;;;;;;;;;;;25.10;25.60;;;;;;4945755;28;20266;-64
2022/04/10 12:38:05;;;;;;;;;;;25.10;25.50;;;;;;4943999;28;20594;-64
2022/04/10 12:40:35;;;;;;;;;;;25.10;25.50;;;;;;4945238;28;19973;-64
2022/04/10 12:43:03;;;;;;;;;;;25.20;25.50;;;;;;4943782;28;19966;-63
2022/04/10 12:45:31;;;;;;;;;;;25.20;25.40;;;;;;4944520;28;19980;-64
2022/04/10 12:47:59;;;;;;;;;;;25.20;25.50;;;;;;4941823;28;20406;-64
2022/04/10 12:50:26;;;;;;;;;;;25.20;25.40;;;;;;4944465;28;19980;-64
2022/04/10 12:52:55;;;;;;;;;;;25.20;25.40;;;;;;4944078;28;19969;-64
2022/04/10 12:55:23;;;;;;;;;;;25.20;25.50;;;;;;4944446;28;20391;-64
2022/04/10 12:57:54;;;;;;;;;;;25.20;25.40;;;;;;4945327;28;20028;-64
2022/04/10 13:00:22;;;;;;;;;;;25.20;25.40;;;;;;4944721;28;19973;-64
2022/04/10 13:02:49;;;;;;;;;;;25.10;25.30;;;;;;4943566;28;19988;-64
2022/04/10 13:05:18;;;;;;;;;;;25.10;25.30;;;;;;4945123;28;20622;-64
2022/04/10 13:07:55;;;;;;;;;;;25.10;25.40;;;;;;4944387;28;20302;-63
2022/04/10 13:10:23;;;;;;;;;;;25.10;25.80;;;;;;4953839;28;20008;-64
2022/04/10 13:12:50;;;;;;;;;;;25.10;25.40;;;;;;4964486;28;20374;-64
2022/04/10 13:15:31;;;;;;;;;;;25.20;25.40;;;;;;4964152;28;20386;-64
2022/04/10 13:17:58;;;;;;;;;;;25.20;25.30;;;;;;4964623;28;20193;-64
2022/04/10 13:20:26;;;;;;;;;;;25.20;25.40;;;;;;4942264;28;20181;-64
2022/04/10 13:22:53;;;;;;;;;;;25.20;25.30;;;;;;4962432;28;19961;-64
2022/04/10 13:25:20;;;;;;;;;;;25.10;25.20;;;;;;4963337;28;20000;-64
2022/04/10 13:27:47;;;;;;;;;;;25.20;25.20;;;;;;4964017;28;19927;-63
2022/04/10 13:30:14;;;;;;;;;;;25.20;25.30;;;;;;4962452;28;19972;-64
2022/04/10 13:32:41;;;;;;;;;;;25.20;25.40;;;;;;4962375;28;19930;-64
2022/04/10 13:35:09;;;;;;;;;;;25.20;25.40;;;;;;4963746;28;19977;-64
2022/04/10 13:37:36;;;;;;;;;;;25.20;25.30;;;;;;4963260;28;19930;-63
2022/04/10 13:40:04;;;;;;;;;;;25.20;25.30;;;;;;4962621;28;20302;-64
2022/04/10 13:42:32;;;;;;;;;;;25.20;25.30;;;;;;4963188;28;20191;-64
2022/04/10 13:45:00;;;;;;;;;;;25.20;25.40;;;;;;4963011;28;19934;-64
2022/04/10 13:47:28;;;;;;;;;;;25.20;25.50;;;;;;4962694;28;20009;-64
2022/04/10 13:49:55;;;;;;;;;;;25.10;25.40;;;;;;4963002;28;20012;-64
2022/04/10 13:52:22;;;;;;;;;;;25.20;25.40;;;;;;4959199;28;19926;-64
2022/04/10 13:54:52;;;;;;;;;;;25.10;25.30;;;;;;4962313;28;20170;-64
2022/04/10 13:57:19;;;;;;;;;;;25.20;25.30;;;;;;4962783;28;20290;-64
2022/04/10 13:59:46;;;;;;;;;;;25.10;25.20;;;;;;4964280;28;19975;-64
2022/04/10 14:02:14;;;;;;;;;;;25.20;25.30;;;;;;4963606;28;19996;-64
2022/04/10 14:04:42;;;;;;;;;;;25.20;25.30;;;;;;4946227;28;19988;-63
2022/04/10 14:07:09;;;;;;;;;;;25.20;25.30;;;;;;4946251;28;20239;-64
2022/04/10 14:09:36;;;;;;;;;;;25.20;25.20;;;;;;4946962;28;20344;-64
2022/04/10 14:12:04;;;;;;;;;;;25.20;25.10;;;;;;4946898;28;19926;-64
2022/04/10 14:14:32;;;;;;;;;;;25.20;25.00;;;;;;4948325;28;19992;-64
2022/04/10 14:17:00;;;;;;;;;;;25.20;25.00;;;;;;4931112;29;20023;-64
2022/04/10 14:19:27;;;;;;;;;;;25.20;24.80;;;;;;4946783;28;19931;-64
2022/04/10 14:21:55;;;;;;;;;;;25.10;24.80;;;;;;4946634;28;19939;-64
2022/04/10 14:24:23;;;;;;;;;;;25.10;24.70;;;;;;4942164;28;19933;-63
2022/04/10 14:26:50;;;;;;;;;;;25.10;24.70;;;;;;4945971;28;19937;-64
2022/04/10 14:29:17;;;;;;;;;;;25.10;24.90;;;;;;4947176;28;20328;-64